sensor_id;sensor_type;location;lat;lon;timestamp;temperature;humidity
54938;DHT22;52756;52.826;6.214;2022-11-15T00:00:19;7.80;78.10
54938;DHT22;52756;52.826;6.214;2022-11-15T00:02:45;7.70;78.20
54938;DHT22;52756;52.826;6.214;2022-11-15T00:05:11;7.80;78.30
54938;DHT22;52756;52.826;6.214;2022-11-15T00:07:36;7.80;78.40
54938;DHT22;52756;52.826;6.214;2022-11-15T00:10:03;7.80;78.40
54938;DHT22;52756;52.826;6.214;2022-11-15T00:12:29;7.80;78.50
54938;DHT22;52756;52.826;6.214;2022-11-15T00:14:54;7.80;78.50
54938;DHT22;52756;52.826;6.214;2022-11-15T00:17:20;7.80;78.40
54938;DHT22;52756;52.826;6.214;2022-11-15T00:19:46;7.80;78.40
54938;DHT22;52756;52.826;6.214;2022-11-15T00:22:12;7.90;78.40
54938;DHT22;52756;52.826;6.214;2022-11-15T00:24:37;7.80;78.20
54938;DHT22;52756;52.826;6.214;2022-11-15T00:27:03;7.90;78.20
54938;DHT22;52756;52.826;6.214;2022-11-15T00:29:28;7.90;78.20
54938;DHT22;52756;52.826;6.214;2022-11-15T00:31:54;7.90;78.10
54938;DHT22;52756;52.826;6.214;2022-11-15T00:34:20;7.90;78.10
54938;DHT22;52756;52.826;6.214;2022-11-15T00:36:45;7.90;78.00
54938;DHT22;52756;52.826;6.214;2022-11-15T00:39:11;7.90;78.00
54938;DHT22;52756;52.826;6.214;2022-11-15T00:41:37;7.90;78.00
54938;DHT22;52756;52.826;6.214;2022-11-15T00:44:02;7.90;78.00
54938;DHT22;52756;52.826;6.214;2022-11-15T00:46:28;7.90;78.00
54938;DHT22;52756;52.826;6.214;2022-11-15T00:48:54;7.90;77.90
54938;DHT22;52756;52.826;6.214;2022-11-15T00:51:19;7.90;77.80
54938;DHT22;52756;52.826;6.214;2022-11-15T00:53:45;7.90;77.70
54938;DHT22;52756;52.826;6.214;2022-11-15T00:56:11;8.00;77.80
54938;DHT22;52756;52.826;6.214;2022-11-15T00:58:36;7.90;77.70
54938;DHT22;52756;52.826;6.214;2022-11-15T01:01:13;8.00;77.70
54938;DHT22;52756;52.826;6.214;2022-11-15T01:03:40;8.00;77.80
54938;DHT22;52756;52.826;6.214;2022-11-15T01:06:08;7.90;77.80
54938;DHT22;52756;52.826;6.214;2022-11-15T01:08:34;8.00;77.90
54938;DHT22;52756;52.826;6.214;2022-11-15T01:11:05;7.90;77.80
54938;DHT22;52756;52.826;6.214;2022-11-15T01:13:33;7.90;77.80
54938;DHT22;52756;52.826;6.214;2022-11-15T01:16:11;8.00;77.80
54938;DHT22;52756;52.826;6.214;2022-11-15T01:18:37;8.00;77.80
54938;DHT22;52756;52.826;6.214;2022-11-15T01:21:21;8.00;77.90
54938;DHT22;52756;52.826;6.214;2022-11-15T01:23:47;8.00;77.90
54938;DHT22;52756;52.826;6.214;2022-11-15T01:26:14;8.00;78.00
54938;DHT22;52756;52.826;6.214;2022-11-15T01:28:41;8.00;78.10
54938;DHT22;52756;52.826;6.214;2022-11-15T01:31:18;8.10;78.00
54938;DHT22;52756;52.826;6.214;2022-11-15T01:33:44;8.10;78.10
54938;DHT22;52756;52.826;6.214;2022-11-15T01:36:13;8.10;78.10
54938;DHT22;52756;52.826;6.214;2022-11-15T01:38:39;8.10;78.00
54938;DHT22;52756;52.826;6.214;2022-11-15T01:41:04;8.10;78.00
54938;DHT22;52756;52.826;6.214;2022-11-15T01:43:35;8.10;78.00
54938;DHT22;52756;52.826;6.214;2022-11-15T01:46:30;8.20;78.10
54938;DHT22;52756;52.826;6.214;2022-11-15T01:48:59;8.20;78.10
54938;DHT22;52756;52.826;6.214;2022-11-15T01:51:28;8.10;78.00
54938;DHT22;52756;52.826;6.214;2022-11-15T01:53:58;8.20;78.10
54938;DHT22;52756;52.826;6.214;2022-11-15T01:56:30;8.20;78.10
54938;DHT22;52756;52.826;6.214;2022-11-15T01:58:58;8.20;78.10
54938;DHT22;52756;52.826;6.214;2022-11-15T02:01:26;8.30;78.20
54938;DHT22;52756;52.826;6.214;2022-11-15T02:03:59;8.20;78.20
54938;DHT22;52756;52.826;6.214;2022-11-15T02:06:26;8.20;78.20
54938;DHT22;52756;52.826;6.214;2022-11-15T02:08:52;8.20;78.10
54938;DHT22;52756;52.826;6.214;2022-11-15T02:11:18;8.20;78.20
54938;DHT22;52756;52.826;6.214;2022-11-15T02:13:45;8.20;78.30
54938;DHT22;52756;52.826;6.214;2022-11-15T02:16:33;8.20;78.30
54938;DHT22;52756;52.826;6.214;2022-11-15T02:21:46;8.30;78.50
54938;DHT22;52756;52.826;6.214;2022-11-15T02:32:55;8.30;78.60
54938;DHT22;52756;52.826;6.214;2022-11-15T02:35:46;8.30;78.70
54938;DHT22;52756;52.826;6.214;2022-11-15T02:40:57;8.30;78.90
54938;DHT22;52756;52.826;6.214;2022-11-15T02:43:36;8.30;79.10
54938;DHT22;52756;52.826;6.214;2022-11-15T02:49:11;8.30;79.20
54938;DHT22;52756;52.826;6.214;2022-11-15T02:51:38;8.30;79.30
54938;DHT22;52756;52.826;6.214;2022-11-15T02:54:03;8.40;79.50
54938;DHT22;52756;52.826;6.214;2022-11-15T02:56:29;8.30;79.60
54938;DHT22;52756;52.826;6.214;2022-11-15T03:07:37;8.40;80.20
54938;DHT22;52756;52.826;6.214;2022-11-15T03:12:51;8.40;80.50
54938;DHT22;52756;52.826;6.214;2022-11-15T03:18:01;8.50;80.80
54938;DHT22;52756;52.826;6.214;2022-11-15T03:20:29;8.40;80.90
54938;DHT22;52756;52.826;6.214;2022-11-15T03:23:00;8.50;80.90
54938;DHT22;52756;52.826;6.214;2022-11-15T03:25:29;8.50;81.10
54938;DHT22;52756;52.826;6.214;2022-11-15T03:27:59;8.50;81.10
54938;DHT22;52756;52.826;6.214;2022-11-15T03:30:29;8.50;81.20
54938;DHT22;52756;52.826;6.214;2022-11-15T03:32:57;8.60;81.40
54938;DHT22;52756;52.826;6.214;2022-11-15T03:35:27;8.60;81.50
54938;DHT22;52756;52.826;6.214;2022-11-15T03:38:14;8.60;81.60
54938;DHT22;52756;52.826;6.214;2022-11-15T03:41:08;8.60;81.90
54938;DHT22;52756;52.826;6.214;2022-11-15T03:43:51;8.60;81.80
54938;DHT22;52756;52.826;6.214;2022-11-15T03:46:32;8.60;82.00
54938;DHT22;52756;52.826;6.214;2022-11-15T03:49:17;8.70;82.20
54938;DHT22;52756;52.826;6.214;2022-11-15T03:51:45;8.70;82.20
54938;DHT22;52756;52.826;6.214;2022-11-15T03:54:12;8.70;82.30
54938;DHT22;52756;52.826;6.214;2022-11-15T03:56:37;8.80;82.50
54938;DHT22;52756;52.826;6.214;2022-11-15T03:59:03;8.70;82.50
54938;DHT22;52756;52.826;6.214;2022-11-15T04:01:29;8.70;82.50
54938;DHT22;52756;52.826;6.214;2022-11-15T04:03:54;8.70;82.60
54938;DHT22;52756;52.826;6.214;2022-11-15T04:06:20;8.70;82.70
54938;DHT22;52756;52.826;6.214;2022-11-15T04:08:46;8.70;82.90
54938;DHT22;52756;52.826;6.214;2022-11-15T04:11:11;8.70;82.90
54938;DHT22;52756;52.826;6.214;2022-11-15T04:13:37;8.70;83.00
54938;DHT22;52756;52.826;6.214;2022-11-15T04:16:03;8.80;83.20
54938;DHT22;52756;52.826;6.214;2022-11-15T04:18:28;8.80;83.30
54938;DHT22;52756;52.826;6.214;2022-11-15T04:20:54;8.80;83.50
54938;DHT22;52756;52.826;6.214;2022-11-15T04:23:38;8.90;83.60
54938;DHT22;52756;52.826;6.214;2022-11-15T04:26:23;8.90;83.70
54938;DHT22;52756;52.826;6.214;2022-11-15T04:28:49;8.90;83.80
54938;DHT22;52756;52.826;6.214;2022-11-15T04:31:33;8.90;83.90
54938;DHT22;52756;52.826;6.214;2022-11-15T04:33:58;8.90;84.00
54938;DHT22;52756;52.826;6.214;2022-11-15T04:36:24;9.00;84.10
54938;DHT22;52756;52.826;6.214;2022-11-15T04:39:09;9.00;84.20
54938;DHT22;52756;52.826;6.214;2022-11-15T04:41:35;9.00;84.30
54938;DHT22;52756;52.826;6.214;2022-11-15T04:44:00;9.10;84.40
54938;DHT22;52756;52.826;6.214;2022-11-15T04:46:26;9.10;84.60
54938;DHT22;52756;52.826;6.214;2022-11-15T04:48:53;9.10;84.60
54938;DHT22;52756;52.826;6.214;2022-11-15T04:51:19;9.20;84.70
54938;DHT22;52756;52.826;6.214;2022-11-15T04:53:45;9.30;84.90
54938;DHT22;52756;52.826;6.214;2022-11-15T04:56:10;9.20;84.90
54938;DHT22;52756;52.826;6.214;2022-11-15T04:58:36;9.30;85.10
54938;DHT22;52756;52.826;6.214;2022-11-15T05:01:13;9.30;85.10
54938;DHT22;52756;52.826;6.214;2022-11-15T05:03:43;9.30;85.30
54938;DHT22;52756;52.826;6.214;2022-11-15T05:06:28;9.40;85.40
54938;DHT22;52756;52.826;6.214;2022-11-15T05:08:54;9.40;85.40
54938;DHT22;52756;52.826;6.214;2022-11-15T05:11:20;9.50;85.50
54938;DHT22;52756;52.826;6.214;2022-11-15T05:13:46;9.50;85.50
54938;DHT22;52756;52.826;6.214;2022-11-15T05:16:12;9.50;85.60
54938;DHT22;52756;52.826;6.214;2022-11-15T05:18:38;9.60;85.70
54938;DHT22;52756;52.826;6.214;2022-11-15T05:21:12;9.60;85.70
54938;DHT22;52756;52.826;6.214;2022-11-15T05:23:38;9.60;85.90
54938;DHT22;52756;52.826;6.214;2022-11-15T05:26:05;9.60;85.80
54938;DHT22;52756;52.826;6.214;2022-11-15T05:28:32;9.70;85.90
54938;DHT22;52756;52.826;6.214;2022-11-15T05:31:02;9.70;86.00
54938;DHT22;52756;52.826;6.214;2022-11-15T05:33:28;9.70;86.00
54938;DHT22;52756;52.826;6.214;2022-11-15T05:36:45;9.70;86.00
54938;DHT22;52756;52.826;6.214;2022-11-15T05:38:47;9.80;86.20
54938;DHT22;52756;52.826;6.214;2022-11-15T05:41:13;9.80;86.20
54938;DHT22;52756;52.826;6.214;2022-11-15T05:43:40;9.80;86.10
54938;DHT22;52756;52.826;6.214;2022-11-15T05:46:06;9.80;86.20
54938;DHT22;52756;52.826;6.214;2022-11-15T05:48:34;9.90;86.20
54938;DHT22;52756;52.826;6.214;2022-11-15T05:51:02;9.90;86.30
54938;DHT22;52756;52.826;6.214;2022-11-15T05:53:30;9.90;86.30
54938;DHT22;52756;52.826;6.214;2022-11-15T05:55:55;9.90;86.30
54938;DHT22;52756;52.826;6.214;2022-11-15T05:58:21;10.00;86.40
54938;DHT22;52756;52.826;6.214;2022-11-15T06:00:47;10.00;86.40
54938;DHT22;52756;52.826;6.214;2022-11-15T06:03:13;10.00;86.40
54938;DHT22;52756;52.826;6.214;2022-11-15T06:05:40;10.00;86.40
54938;DHT22;52756;52.826;6.214;2022-11-15T06:08:06;10.10;86.50
54938;DHT22;52756;52.826;6.214;2022-11-15T06:10:32;10.10;86.50
54938;DHT22;52756;52.826;6.214;2022-11-15T06:12:59;10.10;86.60
54938;DHT22;52756;52.826;6.214;2022-11-15T06:15:25;10.20;86.70
54938;DHT22;52756;52.826;6.214;2022-11-15T06:17:50;10.20;86.70
54938;DHT22;52756;52.826;6.214;2022-11-15T06:20:17;10.20;86.60
54938;DHT22;52756;52.826;6.214;2022-11-15T06:22:43;10.20;86.60
54938;DHT22;52756;52.826;6.214;2022-11-15T06:25:08;10.30;86.70
54938;DHT22;52756;52.826;6.214;2022-11-15T06:27:34;10.30;86.70
54938;DHT22;52756;52.826;6.214;2022-11-15T06:30:00;10.30;86.70
54938;DHT22;52756;52.826;6.214;2022-11-15T06:32:25;10.30;86.70
54938;DHT22;52756;52.826;6.214;2022-11-15T06:34:51;10.30;86.70
54938;DHT22;52756;52.826;6.214;2022-11-15T06:37:17;10.40;86.90
54938;DHT22;52756;52.826;6.214;2022-11-15T06:39:42;10.40;86.90
54938;DHT22;52756;52.826;6.214;2022-11-15T06:42:08;10.40;86.90
54938;DHT22;52756;52.826;6.214;2022-11-15T06:44:34;10.40;87.00
54938;DHT22;52756;52.826;6.214;2022-11-15T06:47:00;10.50;86.90
54938;DHT22;52756;52.826;6.214;2022-11-15T06:49:25;10.50;86.90
54938;DHT22;52756;52.826;6.214;2022-11-15T06:51:51;10.50;86.90
54938;DHT22;52756;52.826;6.214;2022-11-15T06:54:17;10.50;87.40
54938;DHT22;52756;52.826;6.214;2022-11-15T06:56:42;10.50;86.90
54938;DHT22;52756;52.826;6.214;2022-11-15T06:59:08;10.50;86.90
54938;DHT22;52756;52.826;6.214;2022-11-15T07:01:34;10.60;87.00
54938;DHT22;52756;52.826;6.214;2022-11-15T07:03:59;10.60;87.00
54938;DHT22;52756;52.826;6.214;2022-11-15T07:06:25;10.60;86.90
54938;DHT22;52756;52.826;6.214;2022-11-15T07:08:50;10.60;86.90
54938;DHT22;52756;52.826;6.214;2022-11-15T07:11:16;10.70;87.00
54938;DHT22;52756;52.826;6.214;2022-11-15T07:13:42;10.70;87.00
54938;DHT22;52756;52.826;6.214;2022-11-15T07:16:09;10.70;87.00
54938;DHT22;52756;52.826;6.214;2022-11-15T07:18:39;10.70;87.00
54938;DHT22;52756;52.826;6.214;2022-11-15T07:21:07;10.70;87.00
54938;DHT22;52756;52.826;6.214;2022-11-15T07:23:36;10.70;87.00
54938;DHT22;52756;52.826;6.214;2022-11-15T07:26:02;10.80;87.10
54938;DHT22;52756;52.826;6.214;2022-11-15T07:28:28;10.80;87.00
54938;DHT22;52756;52.826;6.214;2022-11-15T07:30:54;10.80;87.00
54938;DHT22;52756;52.826;6.214;2022-11-15T07:33:20;10.80;87.00
54938;DHT22;52756;52.826;6.214;2022-11-15T07:35:46;10.80;87.00
54938;DHT22;52756;52.826;6.214;2022-11-15T07:38:15;10.80;87.00
54938;DHT22;52756;52.826;6.214;2022-11-15T07:40:41;10.90;87.40
54938;DHT22;52756;52.826;6.214;2022-11-15T07:43:08;10.90;87.00
54938;DHT22;52756;52.826;6.214;2022-11-15T07:45:34;10.90;87.10
54938;DHT22;52756;52.826;6.214;2022-11-15T07:48:05;10.90;87.00
54938;DHT22;52756;52.826;6.214;2022-11-15T07:50:31;10.90;87.00
54938;DHT22;52756;52.826;6.214;2022-11-15T07:52:58;10.90;87.00
54938;DHT22;52756;52.826;6.214;2022-11-15T07:55:25;10.90;86.90
54938;DHT22;52756;52.826;6.214;2022-11-15T07:57:50;11.00;86.90
54938;DHT22;52756;52.826;6.214;2022-11-15T08:00:17;10.90;86.90
54938;DHT22;52756;52.826;6.214;2022-11-15T08:02:43;11.00;86.90
54938;DHT22;52756;52.826;6.214;2022-11-15T08:05:09;11.00;86.90
54938;DHT22;52756;52.826;6.214;2022-11-15T08:07:34;11.00;86.90
54938;DHT22;52756;52.826;6.214;2022-11-15T08:10:00;11.00;86.90
54938;DHT22;52756;52.826;6.214;2022-11-15T08:12:29;11.00;87.20
54938;DHT22;52756;52.826;6.214;2022-11-15T08:14:55;11.10;86.90
54938;DHT22;52756;52.826;6.214;2022-11-15T08:17:22;11.10;86.90
54938;DHT22;52756;52.826;6.214;2022-11-15T08:19:48;11.10;86.80
54938;DHT22;52756;52.826;6.214;2022-11-15T08:22:14;11.10;86.80
54938;DHT22;52756;52.826;6.214;2022-11-15T08:24:40;11.20;86.90
54938;DHT22;52756;52.826;6.214;2022-11-15T08:27:05;11.20;87.30
54938;DHT22;52756;52.826;6.214;2022-11-15T08:29:41;11.30;87.40
54938;DHT22;52756;52.826;6.214;2022-11-15T08:32:06;11.20;86.90
54938;DHT22;52756;52.826;6.214;2022-11-15T08:34:33;11.20;86.90
54938;DHT22;52756;52.826;6.214;2022-11-15T08:36:58;11.20;86.90
54938;DHT22;52756;52.826;6.214;2022-11-15T08:39:24;11.30;86.90
54938;DHT22;52756;52.826;6.214;2022-11-15T08:41:49;11.30;86.80
54938;DHT22;52756;52.826;6.214;2022-11-15T08:44:15;11.30;86.80
54938;DHT22;52756;52.826;6.214;2022-11-15T08:46:41;11.30;86.70
54938;DHT22;52756;52.826;6.214;2022-11-15T08:49:06;11.30;86.70
54938;DHT22;52756;52.826;6.214;2022-11-15T08:51:32;11.40;86.80
54938;DHT22;52756;52.826;6.214;2022-11-15T08:53:58;11.40;86.80
54938;DHT22;52756;52.826;6.214;2022-11-15T08:56:23;11.40;86.80
54938;DHT22;52756;52.826;6.214;2022-11-15T08:58:49;11.40;86.80
54938;DHT22;52756;52.826;6.214;2022-11-15T09:01:18;11.40;86.80
54938;DHT22;52756;52.826;6.214;2022-11-15T09:03:44;11.50;86.70
54938;DHT22;52756;52.826;6.214;2022-11-15T09:06:10;11.50;86.70
54938;DHT22;52756;52.826;6.214;2022-11-15T09:08:36;11.50;86.80
54938;DHT22;52756;52.826;6.214;2022-11-15T09:11:09;11.50;86.70
54938;DHT22;52756;52.826;6.214;2022-11-15T09:13:36;11.60;87.00
54938;DHT22;52756;52.826;6.214;2022-11-15T09:16:05;11.60;86.90
54938;DHT22;52756;52.826;6.214;2022-11-15T09:18:31;11.60;86.90
54938;DHT22;52756;52.826;6.214;2022-11-15T09:20:58;11.60;86.90
54938;DHT22;52756;52.826;6.214;2022-11-15T09:23:24;11.60;86.90
54938;DHT22;52756;52.826;6.214;2022-11-15T09:25:50;11.70;87.00
54938;DHT22;52756;52.826;6.214;2022-11-15T09:28:16;11.70;86.90
54938;DHT22;52756;52.826;6.214;2022-11-15T09:30:42;11.70;86.90
54938;DHT22;52756;52.826;6.214;2022-11-15T09:33:12;11.80;86.90
54938;DHT22;52756;52.826;6.214;2022-11-15T09:35:38;11.80;86.90
54938;DHT22;52756;52.826;6.214;2022-11-15T09:38:04;11.80;87.10
54938;DHT22;52756;52.826;6.214;2022-11-15T09:40:36;11.80;86.60
54938;DHT22;52756;52.826;6.214;2022-11-15T09:43:40;11.90;86.70
54938;DHT22;52756;52.826;6.214;2022-11-15T09:49:04;11.90;86.40
54938;DHT22;52756;52.826;6.214;2022-11-15T09:51:41;11.90;86.40
54938;DHT22;52756;52.826;6.214;2022-11-15T09:54:34;11.90;86.40
54938;DHT22;52756;52.826;6.214;2022-11-15T09:57:09;11.90;86.40
54938;DHT22;52756;52.826;6.214;2022-11-15T10:04:31;12.00;86.40
54938;DHT22;52756;52.826;6.214;2022-11-15T10:12:27;12.00;86.20
54938;DHT22;52756;52.826;6.214;2022-11-15T10:15:11;12.00;86.10
54938;DHT22;52756;52.826;6.214;2022-11-15T10:20:29;12.10;85.90
54938;DHT22;52756;52.826;6.214;2022-11-15T10:23:05;12.10;85.90
54938;DHT22;52756;52.826;6.214;2022-11-15T10:25:33;12.10;85.80
54938;DHT22;52756;52.826;6.214;2022-11-15T10:28:44;12.20;85.80
54938;DHT22;52756;52.826;6.214;2022-11-15T10:30:48;12.20;85.70
54938;DHT22;52756;52.826;6.214;2022-11-15T10:33:17;12.20;85.80
54938;DHT22;52756;52.826;6.214;2022-11-15T10:35:45;12.20;85.80
54938;DHT22;52756;52.826;6.214;2022-11-15T10:38:11;12.30;85.70
54938;DHT22;52756;52.826;6.214;2022-11-15T10:40:39;12.30;85.70
54938;DHT22;52756;52.826;6.214;2022-11-15T10:43:13;12.30;85.80
54938;DHT22;52756;52.826;6.214;2022-11-15T10:45:40;12.40;85.90
54938;DHT22;52756;52.826;6.214;2022-11-15T10:50:39;12.40;85.80
54938;DHT22;52756;52.826;6.214;2022-11-15T10:55:56;12.50;85.30
54938;DHT22;52756;52.826;6.214;2022-11-15T10:58:53;12.50;85.00
54938;DHT22;52756;52.826;6.214;2022-11-15T11:01:22;12.50;84.60
54938;DHT22;52756;52.826;6.214;2022-11-15T11:04:21;12.50;84.20
54938;DHT22;52756;52.826;6.214;2022-11-15T11:06:57;12.50;83.90
54938;DHT22;52756;52.826;6.214;2022-11-15T11:11:59;12.50;83.50
54938;DHT22;52756;52.826;6.214;2022-11-15T11:14:28;12.60;83.40
54938;DHT22;52756;52.826;6.214;2022-11-15T11:17:02;12.60;83.00
54938;DHT22;52756;52.826;6.214;2022-11-15T11:25:34;12.60;82.00
54938;DHT22;52756;52.826;6.214;2022-11-15T11:31:13;12.60;80.90
54938;DHT22;52756;52.826;6.214;2022-11-15T11:39:34;12.70;80.10
54938;DHT22;52756;52.826;6.214;2022-11-15T11:42:23;12.70;79.90
54938;DHT22;52756;52.826;6.214;2022-11-15T11:47:24;12.70;80.00
54938;DHT22;52756;52.826;6.214;2022-11-15T11:49:55;12.70;80.00
54938;DHT22;52756;52.826;6.214;2022-11-15T11:55:00;12.70;79.90
54938;DHT22;52756;52.826;6.214;2022-11-15T11:57:33;12.80;79.70
54938;DHT22;52756;52.826;6.214;2022-11-15T12:00:21;12.80;79.10
54938;DHT22;52756;52.826;6.214;2022-11-15T12:03:11;12.80;79.00
54938;DHT22;52756;52.826;6.214;2022-11-15T12:05:44;12.80;77.80
54938;DHT22;52756;52.826;6.214;2022-11-15T12:14:33;12.90;77.80
54938;DHT22;52756;52.826;6.214;2022-11-15T12:17:00;12.90;77.80
54938;DHT22;52756;52.826;6.214;2022-11-15T12:19:26;13.00;78.00
54938;DHT22;52756;52.826;6.214;2022-11-15T12:22:08;13.00;77.90
54938;DHT22;52756;52.826;6.214;2022-11-15T12:24:47;13.00;77.40
54938;DHT22;52756;52.826;6.214;2022-11-15T12:27:36;13.00;76.80
54938;DHT22;52756;52.826;6.214;2022-11-15T12:30:18;13.00;76.60
54938;DHT22;52756;52.826;6.214;2022-11-15T12:33:30;13.10;76.30
54938;DHT22;52756;52.826;6.214;2022-11-15T12:36:43;13.10;75.50
54938;DHT22;52756;52.826;6.214;2022-11-15T12:39:03;13.10;75.80
54938;DHT22;52756;52.826;6.214;2022-11-15T13:02:29;13.10;74.80
54938;DHT22;52756;52.826;6.214;2022-11-15T13:17:53;13.00;72.90
54938;DHT22;52756;52.826;6.214;2022-11-15T13:20:32;13.00;72.50
54938;DHT22;52756;52.826;6.214;2022-11-15T13:30:58;13.00;72.50
54938;DHT22;52756;52.826;6.214;2022-11-15T13:33:31;12.90;72.50
54938;DHT22;52756;52.826;6.214;2022-11-15T13:35:59;12.90;72.30
54938;DHT22;52756;52.826;6.214;2022-11-15T13:38:32;12.90;71.50
54938;DHT22;52756;52.826;6.214;2022-11-15T13:40:59;12.90;70.40
54938;DHT22;52756;52.826;6.214;2022-11-15T13:49:13;12.80;70.20
54938;DHT22;52756;52.826;6.214;2022-11-15T13:51:48;12.80;70.70
54938;DHT22;52756;52.826;6.214;2022-11-15T13:54:23;12.80;70.20
54938;DHT22;52756;52.826;6.214;2022-11-15T13:57:15;12.80;70.40
54938;DHT22;52756;52.826;6.214;2022-11-15T13:59:59;12.80;69.80
54938;DHT22;52756;52.826;6.214;2022-11-15T14:02:30;12.80;69.60
54938;DHT22;52756;52.826;6.214;2022-11-15T14:05:15;12.80;69.70
54938;DHT22;52756;52.826;6.214;2022-11-15T14:07:52;12.80;69.20
54938;DHT22;52756;52.826;6.214;2022-11-15T14:10:32;12.70;69.70
54938;DHT22;52756;52.826;6.214;2022-11-15T14:12:59;12.70;69.50
54938;DHT22;52756;52.826;6.214;2022-11-15T14:17:57;12.70;68.60
54938;DHT22;52756;52.826;6.214;2022-11-15T14:20:27;12.70;68.70
54938;DHT22;52756;52.826;6.214;2022-11-15T14:22:55;12.70;67.80
54938;DHT22;52756;52.826;6.214;2022-11-15T14:25:35;12.60;67.90
54938;DHT22;52756;52.826;6.214;2022-11-15T14:30:34;12.60;67.40
54938;DHT22;52756;52.826;6.214;2022-11-15T14:33:00;12.50;67.40
54938;DHT22;52756;52.826;6.214;2022-11-15T14:35:25;12.50;67.20
54938;DHT22;52756;52.826;6.214;2022-11-15T14:37:51;12.50;67.40
54938;DHT22;52756;52.826;6.214;2022-11-15T14:40:19;12.50;67.20
54938;DHT22;52756;52.826;6.214;2022-11-15T14:42:46;12.50;67.40
54938;DHT22;52756;52.826;6.214;2022-11-15T14:45:20;12.50;67.20
54938;DHT22;52756;52.826;6.214;2022-11-15T14:47:46;12.50;67.30
54938;DHT22;52756;52.826;6.214;2022-11-15T14:50:14;12.40;67.40
54938;DHT22;52756;52.826;6.214;2022-11-15T14:52:40;12.40;67.40
54938;DHT22;52756;52.826;6.214;2022-11-15T14:55:29;12.40;67.80
54938;DHT22;52756;52.826;6.214;2022-11-15T14:57:56;12.40;67.20
54938;DHT22;52756;52.826;6.214;2022-11-15T15:00:22;12.30;67.50
54938;DHT22;52756;52.826;6.214;2022-11-15T15:02:48;12.30;67.60
54938;DHT22;52756;52.826;6.214;2022-11-15T15:05:18;12.30;67.90
54938;DHT22;52756;52.826;6.214;2022-11-15T15:07:45;12.30;68.10
54938;DHT22;52756;52.826;6.214;2022-11-15T15:10:11;12.30;68.30
54938;DHT22;52756;52.826;6.214;2022-11-15T15:12:37;12.30;68.40
54938;DHT22;52756;52.826;6.214;2022-11-15T15:15:03;12.20;68.90
54938;DHT22;52756;52.826;6.214;2022-11-15T15:17:29;12.20;68.80
54938;DHT22;52756;52.826;6.214;2022-11-15T15:19:55;12.20;69.00
54938;DHT22;52756;52.826;6.214;2022-11-15T15:22:20;12.20;69.10
54938;DHT22;52756;52.826;6.214;2022-11-15T15:24:50;12.20;69.30
54938;DHT22;52756;52.826;6.214;2022-11-15T15:27:16;12.10;69.40
54938;DHT22;52756;52.826;6.214;2022-11-15T15:29:42;12.10;69.60
54938;DHT22;52756;52.826;6.214;2022-11-15T15:32:09;12.10;69.70
54938;DHT22;52756;52.826;6.214;2022-11-15T15:34:35;12.10;69.90
54938;DHT22;52756;52.826;6.214;2022-11-15T15:37:27;12.10;70.00
54938;DHT22;52756;52.826;6.214;2022-11-15T15:39:55;12.00;70.00
54938;DHT22;52756;52.826;6.214;2022-11-15T15:42:22;12.00;70.40
54938;DHT22;52756;52.826;6.214;2022-11-15T15:44:48;12.00;70.50
54938;DHT22;52756;52.826;6.214;2022-11-15T15:47:22;12.00;70.60
54938;DHT22;52756;52.826;6.214;2022-11-15T15:49:48;11.90;70.60
54938;DHT22;52756;52.826;6.214;2022-11-15T15:52:15;11.90;70.80
54938;DHT22;52756;52.826;6.214;2022-11-15T15:54:40;11.90;71.00
54938;DHT22;52756;52.826;6.214;2022-11-15T15:57:07;11.80;71.10
54938;DHT22;52756;52.826;6.214;2022-11-15T15:59:33;11.80;71.20
54938;DHT22;52756;52.826;6.214;2022-11-15T16:01:59;11.80;71.30
54938;DHT22;52756;52.826;6.214;2022-11-15T16:04:25;11.80;71.40
54938;DHT22;52756;52.826;6.214;2022-11-15T16:06:51;11.80;71.50
54938;DHT22;52756;52.826;6.214;2022-11-15T16:09:20;11.80;71.50
54938;DHT22;52756;52.826;6.214;2022-11-15T16:12:08;11.80;71.50
54938;DHT22;52756;52.826;6.214;2022-11-15T16:14:34;11.80;71.60
54938;DHT22;52756;52.826;6.214;2022-11-15T16:16:59;11.70;71.50
54938;DHT22;52756;52.826;6.214;2022-11-15T16:19:25;11.80;71.50
54938;DHT22;52756;52.826;6.214;2022-11-15T16:21:51;11.80;71.20
54938;DHT22;52756;52.826;6.214;2022-11-15T16:24:20;11.80;70.90
54938;DHT22;52756;52.826;6.214;2022-11-15T16:26:47;11.80;70.60
54938;DHT22;52756;52.826;6.214;2022-11-15T16:29:13;11.90;70.20
54938;DHT22;52756;52.826;6.214;2022-11-15T16:31:39;11.90;69.80
54938;DHT22;52756;52.826;6.214;2022-11-15T16:34:05;11.90;69.40
54938;DHT22;52756;52.826;6.214;2022-11-15T16:36:33;11.90;68.90
54938;DHT22;52756;52.826;6.214;2022-11-15T16:39:00;11.90;68.40
54938;DHT22;52756;52.826;6.214;2022-11-15T16:41:29;12.00;67.90
54938;DHT22;52756;52.826;6.214;2022-11-15T16:43:55;12.00;67.40
54938;DHT22;52756;52.826;6.214;2022-11-15T16:46:24;12.00;67.10
54938;DHT22;52756;52.826;6.214;2022-11-15T16:48:50;12.00;67.00
54938;DHT22;52756;52.826;6.214;2022-11-15T16:51:16;12.10;65.70
54938;DHT22;52756;52.826;6.214;2022-11-15T16:53:43;12.10;65.30
54938;DHT22;52756;52.826;6.214;2022-11-15T16:58:47;12.20;63.90
54938;DHT22;52756;52.826;6.214;2022-11-15T17:01:24;12.20;64.20
54938;DHT22;52756;52.826;6.214;2022-11-15T17:03:50;12.20;63.60
54938;DHT22;52756;52.826;6.214;2022-11-15T17:06:16;12.20;63.40
54938;DHT22;52756;52.826;6.214;2022-11-15T17:08:44;12.30;63.80
54938;DHT22;52756;52.826;6.214;2022-11-15T17:11:16;12.30;63.10
54938;DHT22;52756;52.826;6.214;2022-11-15T17:13:42;12.30;62.70
54938;DHT22;52756;52.826;6.214;2022-11-15T17:16:10;12.30;62.70
54938;DHT22;52756;52.826;6.214;2022-11-15T17:18:36;12.30;62.50
54938;DHT22;52756;52.826;6.214;2022-11-15T17:21:08;12.30;62.40
54938;DHT22;52756;52.826;6.214;2022-11-15T17:23:34;12.40;62.10
54938;DHT22;52756;52.826;6.214;2022-11-15T17:26:01;12.40;62.10
54938;DHT22;52756;52.826;6.214;2022-11-15T17:28:29;12.40;62.10
54938;DHT22;52756;52.826;6.214;2022-11-15T17:30:54;12.40;61.70
54938;DHT22;52756;52.826;6.214;2022-11-15T17:33:20;12.40;61.70
54938;DHT22;52756;52.826;6.214;2022-11-15T17:35:46;12.40;61.80
54938;DHT22;52756;52.826;6.214;2022-11-15T17:38:11;12.40;61.90
54938;DHT22;52756;52.826;6.214;2022-11-15T17:40:38;12.40;61.90
54938;DHT22;52756;52.826;6.214;2022-11-15T17:43:05;12.40;61.50
54938;DHT22;52756;52.826;6.214;2022-11-15T17:45:30;12.50;61.60
54938;DHT22;52756;52.826;6.214;2022-11-15T17:47:56;12.40;61.50
54938;DHT22;52756;52.826;6.214;2022-11-15T17:50:22;12.50;61.80
54938;DHT22;52756;52.826;6.214;2022-11-15T17:52:47;12.40;61.90
54938;DHT22;52756;52.826;6.214;2022-11-15T17:55:13;12.50;61.80
54938;DHT22;52756;52.826;6.214;2022-11-15T17:57:39;12.50;61.90
54938;DHT22;52756;52.826;6.214;2022-11-15T18:00:05;12.40;61.80
54938;DHT22;52756;52.826;6.214;2022-11-15T18:02:30;12.50;62.10
54938;DHT22;52756;52.826;6.214;2022-11-15T18:04:56;12.50;62.20